createdAt,value
2023-04-24T00:01:52.317Z,9.33
2023-04-24T00:04:20.632Z,9.37
2023-04-24T00:06:50.702Z,9.87
2023-04-24T00:09:18.812Z,8.07
2023-04-24T00:11:47.063Z,10.13
2023-04-24T00:14:15.229Z,7.70
2023-04-24T00:16:43.452Z,7.60
2023-04-24T00:19:14.023Z,8.60
2023-04-24T00:21:42.730Z,7.57
2023-04-24T00:24:11.218Z,8.70
2023-04-24T00:26:39.260Z,6.03
2023-04-24T00:29:07.283Z,7.13
2023-04-24T00:31:36.023Z,6.97
2023-04-24T00:34:04.534Z,7.13
2023-04-24T00:36:33.935Z,7.47
2023-04-24T00:39:01.892Z,7.07
2023-04-24T00:41:30.073Z,6.37
2023-04-24T00:43:58.163Z,7.50
2023-04-24T00:46:26.488Z,7.83
2023-04-24T00:48:55.058Z,6.53
2023-04-24T00:51:23.039Z,7.00
2023-04-24T00:53:53.171Z,7.33
2023-04-24T00:56:21.441Z,7.57
2023-04-24T00:58:49.843Z,6.40
2023-04-24T01:01:18.217Z,6.90
2023-04-24T01:03:46.782Z,6.87
2023-04-24T01:06:15.912Z,8.70
2023-04-24T01:08:44.603Z,7.43
2023-04-24T01:11:14.155Z,6.30
2023-04-24T01:13:42.391Z,6.30
2023-04-24T01:16:10.574Z,6.83
2023-04-24T01:18:39.394Z,6.87
2023-04-24T01:21:10.247Z,7.10
2023-04-24T01:23:39.759Z,7.73
2023-04-24T01:26:08.353Z,6.57
2023-04-24T01:28:36.786Z,8.20
2023-04-24T01:31:05.407Z,7.13
2023-04-24T01:33:34.622Z,6.93
2023-04-24T01:36:03.175Z,10.70
2023-04-24T01:38:31.425Z,9.00
2023-04-24T01:41:00.957Z,9.60
2023-04-24T01:43:29.034Z,9.43
2023-04-24T01:45:57.266Z,9.07
2023-04-24T01:48:25.408Z,13.00
2023-04-24T01:50:53.614Z,10.87
2023-04-24T01:53:21.894Z,12.27
2023-04-24T01:55:49.958Z,9.40
2023-04-24T01:58:19.495Z,8.47
2023-04-24T02:00:47.687Z,8.00
2023-04-24T02:03:16.113Z,8.77
2023-04-24T02:05:46.306Z,8.53
2023-04-24T02:08:14.295Z,8.57
2023-04-24T02:10:42.442Z,10.67
2023-04-24T02:13:10.585Z,7.80
2023-04-24T02:15:39.976Z,7.70
2023-04-24T02:18:08.451Z,9.93
2023-04-24T02:20:36.685Z,7.70
2023-04-24T02:23:04.771Z,8.27
2023-04-24T02:25:32.989Z,7.63
2023-04-24T02:28:00.957Z,7.93
2023-04-24T02:30:28.987Z,8.97
2023-04-24T02:32:58.609Z,7.90
2023-04-24T02:35:26.955Z,8.47
2023-04-24T02:37:55.216Z,11.00
2023-04-24T02:40:23.400Z,8.23
2023-04-24T02:42:51.683Z,8.20
2023-04-24T02:45:19.948Z,8.13
2023-04-24T02:47:48.411Z,7.80
2023-04-24T02:50:17.959Z,9.50
2023-04-24T02:52:46.117Z,8.67
2023-04-24T02:55:14.400Z,8.80
2023-04-24T02:57:42.540Z,10.13
2023-04-24T03:00:12.557Z,9.73
2023-04-24T03:02:40.796Z,11.20
2023-04-24T03:05:10.147Z,14.73
2023-04-24T03:07:39.811Z,9.97
2023-04-24T03:10:09.528Z,10.37
2023-04-24T03:12:39.229Z,11.03
2023-04-24T03:15:08.622Z,9.77
2023-04-24T03:17:38.181Z,9.93
2023-04-24T03:20:08.066Z,8.57
2023-04-24T03:22:36.589Z,10.33
2023-04-24T03:25:07.194Z,9.97
2023-04-24T03:27:35.248Z,9.07
2023-04-24T03:30:04.072Z,8.37
2023-04-24T03:32:33.403Z,7.90
2023-04-24T03:35:01.652Z,8.33
2023-04-24T03:37:29.762Z,10.77
2023-04-24T03:39:58.001Z,8.63
2023-04-24T03:42:27.722Z,8.77
2023-04-24T03:44:56.476Z,7.30
2023-04-24T03:47:24.598Z,8.07
2023-04-24T03:49:53.381Z,8.70
2023-04-24T03:52:21.507Z,7.97
2023-04-24T03:54:49.637Z,8.77
2023-04-24T03:57:17.757Z,11.07
2023-04-24T03:59:47.399Z,9.20
2023-04-24T04:02:15.488Z,9.40
2023-04-24T04:04:43.873Z,7.70
2023-04-24T04:07:12.420Z,8.63
2023-04-24T04:09:40.718Z,7.90
2023-04-24T04:12:08.906Z,8.13
2023-04-24T04:14:37.174Z,9.53
2023-04-24T04:17:06.620Z,7.70
2023-04-24T04:19:34.721Z,11.83
2023-04-24T04:22:02.814Z,10.83
2023-04-24T04:24:31.059Z,8.20
2023-04-24T04:26:59.326Z,10.17
2023-04-24T04:29:27.499Z,11.53
2023-04-24T04:31:56.414Z,16.80
2023-04-24T04:34:25.954Z,17.70
2023-04-24T04:36:54.156Z,19.03
2023-04-24T04:39:22.311Z,13.17
2023-04-24T04:41:51.575Z,13.13
2023-04-24T04:44:19.568Z,22.57
2023-04-24T04:46:48.572Z,15.13
2023-04-24T04:49:17.887Z,12.47
2023-04-24T04:51:48.104Z,13.07
2023-04-24T04:54:16.996Z,16.63
2023-04-24T04:56:45.727Z,16.73
2023-04-24T04:59:14.020Z,19.43
2023-04-24T05:01:42.502Z,23.17
2023-04-24T05:04:10.857Z,18.10
2023-04-24T05:06:39.545Z,17.83
2023-04-24T05:09:08.926Z,23.60
2023-04-24T05:11:36.980Z,18.97
2023-04-24T05:14:05.338Z,20.30
2023-04-24T05:16:33.417Z,14.13
2023-04-24T05:19:01.603Z,14.23
2023-04-24T05:21:30.310Z,13.40
2023-04-24T05:23:58.323Z,14.63
2023-04-24T05:26:28.236Z,11.33
2023-04-24T05:28:56.655Z,11.03
2023-04-24T05:31:24.789Z,11.00
2023-04-24T05:33:53.025Z,11.27
2023-04-24T05:36:21.284Z,10.20
2023-04-24T05:38:50.784Z,11.73
2023-04-24T05:41:18.783Z,13.43
2023-04-24T05:43:48.507Z,13.57
2023-04-24T05:46:16.919Z,13.13
2023-04-24T05:48:44.947Z,14.97
2023-04-24T05:51:13.087Z,16.43
2023-04-24T05:53:41.119Z,10.80
2023-04-24T05:56:09.328Z,11.70
2023-04-24T05:58:38.519Z,12.43
2023-04-24T06:01:07.981Z,12.07
2023-04-24T06:03:36.287Z,9.90
2023-04-24T06:06:04.561Z,15.13
2023-04-24T06:08:32.767Z,12.40
2023-04-24T06:11:02.765Z,13.40
2023-04-24T06:13:32.438Z,10.73
2023-04-24T06:16:00.665Z,19.67
2023-04-24T06:18:30.262Z,12.57
2023-04-24T06:20:58.872Z,10.33
2023-04-24T06:23:27.133Z,11.10
2023-04-24T06:25:55.442Z,11.15
2023-04-24T06:28:23.442Z,14.48
2023-04-24T06:30:51.545Z,11.30
2023-04-24T06:33:21.271Z,10.65
2023-04-24T06:35:52.438Z,11.43
2023-04-24T06:38:20.896Z,12.70
2023-04-24T06:40:49.139Z,11.40
2023-04-24T06:43:17.184Z,29.70
2023-04-24T06:45:46.433Z,17.08
2023-04-24T06:48:14.626Z,12.18
2023-04-24T06:50:42.664Z,13.68
2023-04-24T06:53:13.842Z,16.60
2023-04-24T06:55:42.290Z,11.00
2023-04-24T06:58:10.437Z,11.15
2023-04-24T07:00:38.569Z,13.27
2023-04-24T07:03:07.403Z,12.15
2023-04-24T07:05:36.449Z,11.55
2023-04-24T07:08:05.669Z,14.38
2023-04-24T07:10:36.505Z,11.35
2023-04-24T07:13:04.983Z,12.98
2023-04-24T07:15:33.481Z,18.25
2023-04-24T07:18:04.030Z,11.95
2023-04-24T07:20:34.391Z,13.68
2023-04-24T07:23:03.089Z,11.10
2023-04-24T07:25:31.560Z,13.55
2023-04-24T07:28:01.183Z,13.60
2023-04-24T07:30:29.960Z,13.75
2023-04-24T07:32:58.006Z,14.80
2023-04-24T07:35:26.675Z,12.10
2023-04-24T07:37:55.750Z,11.30
2023-04-24T07:40:24.522Z,11.27
2023-04-24T07:42:52.986Z,11.68
2023-04-24T07:45:24.205Z,10.50
2023-04-24T07:47:53.238Z,14.35
2023-04-24T07:50:21.693Z,13.32
2023-04-24T07:52:49.795Z,11.75
2023-04-24T07:55:18.092Z,10.43
2023-04-24T07:57:46.195Z,10.98
2023-04-24T08:00:15.210Z,11.93
2023-04-24T08:02:45.972Z,14.13
2023-04-24T08:05:14.077Z,9.75
2023-04-24T08:07:43.737Z,8.98
2023-04-24T08:10:12.827Z,10.48
2023-04-24T08:12:41.432Z,8.80
2023-04-24T08:15:10.636Z,8.02
2023-04-24T08:17:38.892Z,9.18
2023-04-24T08:20:14.556Z,8.55
2023-04-24T08:22:43.182Z,7.75
2023-04-24T08:25:12.493Z,7.75
2023-04-24T08:27:41.021Z,8.20
2023-04-24T08:30:10.540Z,8.30
2023-04-24T08:32:39.073Z,9.30
2023-04-24T08:35:10.794Z,8.98
2023-04-24T08:37:39.129Z,10.00
2023-04-24T08:40:14.183Z,8.60
2023-04-24T08:42:48.056Z,8.65
2023-04-24T08:45:17.619Z,8.48
2023-04-24T08:47:46.513Z,8.07
2023-04-24T08:50:16.461Z,6.72
2023-04-24T08:52:44.791Z,7.18
2023-04-24T08:55:13.181Z,7.97
2023-04-24T08:57:41.814Z,6.80
2023-04-24T09:00:12.218Z,7.95
2023-04-24T09:02:44.347Z,8.00
2023-04-24T09:05:13.076Z,8.60
2023-04-24T09:07:47.256Z,7.32
2023-04-24T09:10:15.453Z,7.75
2023-04-24T09:12:44.213Z,9.07
2023-04-24T09:15:13.537Z,11.13
2023-04-24T09:17:41.628Z,6.85
2023-04-24T09:20:12.564Z,7.93
2023-04-24T09:22:42.357Z,8.85
2023-04-24T09:25:13.757Z,9.93
2023-04-24T09:27:45.137Z,7.30
2023-04-24T09:30:14.347Z,7.45
2023-04-24T09:32:43.035Z,7.90
2023-04-24T09:35:13.483Z,8.50
2023-04-24T09:37:44.305Z,7.55
2023-04-24T09:40:17.808Z,6.88
2023-04-24T09:42:49.894Z,6.97
2023-04-24T09:45:18.610Z,7.15
2023-04-24T09:47:46.783Z,7.03
2023-04-24T09:50:17.203Z,8.32
2023-04-24T09:52:58.840Z,8.95
2023-04-24T09:55:28.790Z,6.70
2023-04-24T09:57:58.970Z,9.45
2023-04-24T10:00:28.540Z,7.60
2023-04-24T10:03:01.380Z,6.10
2023-04-24T10:05:32.398Z,10.82
2023-04-24T10:08:04.467Z,6.70
2023-04-24T10:10:33.277Z,6.75
2023-04-24T10:13:02.073Z,7.55
2023-04-24T10:15:30.378Z,9.10
2023-04-24T10:18:00.637Z,6.93
2023-04-24T10:20:31.694Z,6.53
2023-04-24T10:23:01.208Z,6.70
2023-04-24T10:25:33.084Z,7.70
2023-04-24T10:28:02.203Z,6.65
2023-04-24T10:30:32.117Z,8.77
2023-04-24T10:33:01.916Z,8.35
2023-04-24T10:35:33.394Z,7.00
2023-04-24T10:38:07.645Z,7.82
2023-04-24T10:40:38.505Z,7.10
2023-04-24T10:43:09.109Z,7.53
2023-04-24T10:45:37.392Z,6.38
2023-04-24T10:48:11.819Z,7.90
2023-04-24T10:50:48.092Z,6.97
2023-04-24T10:53:19.135Z,7.00
2023-04-24T10:55:50.444Z,6.90
2023-04-24T10:58:19.409Z,6.45
2023-04-24T11:00:59.414Z,6.53
2023-04-24T11:03:30.155Z,10.13
2023-04-24T11:06:01.263Z,9.48
2023-04-24T11:08:31.693Z,7.55
2023-04-24T11:11:04.059Z,15.95
2023-04-24T11:14:08.978Z,9.27
2023-04-24T11:16:41.211Z,11.10
2023-04-24T11:19:10.927Z,11.98
2023-04-24T11:21:44.099Z,9.13
2023-04-24T11:24:26.432Z,7.97
2023-04-24T11:26:57.783Z,12.63
2023-04-24T11:29:41.206Z,10.82
2023-04-24T11:32:27.930Z,8.52
2023-04-24T11:34:57.758Z,7.72
2023-04-24T11:37:28.410Z,7.78
2023-04-24T11:39:58.311Z,6.88
2023-04-24T11:42:27.959Z,5.95
2023-04-24T11:44:58.132Z,6.68
2023-04-24T11:47:34.962Z,7.50
2023-04-24T11:50:03.618Z,7.40
2023-04-24T11:52:32.691Z,6.43
2023-04-24T11:55:01.837Z,5.82
2023-04-24T11:57:34.839Z,7.18
2023-04-24T12:00:04.590Z,6.25
2023-04-24T12:02:33.894Z,5.22
2023-04-24T12:05:02.131Z,5.07
2023-04-24T12:07:30.512Z,5.75
2023-04-24T12:10:00.899Z,8.35
2023-04-24T12:12:31.512Z,6.10
2023-04-24T12:15:01.178Z,7.65
2023-04-24T12:17:31.376Z,7.30
2023-04-24T12:20:02.337Z,6.13
2023-04-24T12:22:30.763Z,9.32
2023-04-24T12:25:03.324Z,6.05
2023-04-24T12:27:35.162Z,5.45
2023-04-24T12:30:05.558Z,7.40
2023-04-24T12:32:34.342Z,5.70
2023-04-24T12:35:07.173Z,6.25
2023-04-24T12:37:37.564Z,5.72
2023-04-24T12:40:08.792Z,6.05
2023-04-24T12:42:44.834Z,6.80
2023-04-24T12:45:14.187Z,6.55
2023-04-24T12:47:43.099Z,5.32
2023-04-24T12:50:12.376Z,7.07
2023-04-24T12:52:41.119Z,6.20
2023-04-24T12:55:10.522Z,5.90
2023-04-24T12:57:41.715Z,7.05
2023-04-24T13:00:11.083Z,4.60
2023-04-24T13:02:39.494Z,4.95
2023-04-24T13:05:08.365Z,5.45
2023-04-24T13:07:36.348Z,9.50
2023-04-24T13:10:04.505Z,6.13
2023-04-24T13:12:32.524Z,5.10
2023-04-24T13:15:01.861Z,5.75
2023-04-24T13:17:30.078Z,6.15
2023-04-24T13:19:58.133Z,6.32
2023-04-24T13:22:26.118Z,5.60
2023-04-24T13:24:54.100Z,5.38
2023-04-24T13:27:22.168Z,6.45
2023-04-24T13:29:50.153Z,6.93
2023-04-24T13:32:21.316Z,7.43
2023-04-24T13:34:49.455Z,5.40
2023-04-24T13:37:17.477Z,7.85
2023-04-24T13:39:45.542Z,6.65
2023-04-24T13:42:13.807Z,5.65
2023-04-24T13:44:42.293Z,7.93
2023-04-24T13:47:10.347Z,5.70
2023-04-24T13:49:39.835Z,8.23
2023-04-24T13:52:08.487Z,6.40
2023-04-24T13:54:36.701Z,6.05
2023-04-24T13:57:05.658Z,6.10
2023-04-24T13:59:33.633Z,6.32
2023-04-24T14:02:01.764Z,5.88
2023-04-24T14:04:30.163Z,9.82
2023-04-24T14:06:59.776Z,6.60
2023-04-24T14:09:27.904Z,5.28
2023-04-24T14:11:56.119Z,5.00
2023-04-24T14:14:26.375Z,5.00
2023-04-24T14:16:54.577Z,5.22
2023-04-24T14:19:22.556Z,5.88
2023-04-24T14:21:50.725Z,5.35
2023-04-24T14:24:20.208Z,5.82
2023-04-24T14:26:48.187Z,5.65
2023-04-24T14:29:16.303Z,5.70
2023-04-24T14:31:44.719Z,6.23
2023-04-24T14:34:12.753Z,6.80
2023-04-24T14:36:40.789Z,7.03
2023-04-24T14:39:08.941Z,6.40
2023-04-24T14:41:42.608Z,8.07
2023-04-24T14:44:10.730Z,6.77
2023-04-24T14:46:39.234Z,7.83
2023-04-24T14:49:10.658Z,7.73
2023-04-24T14:51:38.936Z,7.13
2023-04-24T14:54:07.057Z,8.33
2023-04-24T14:56:35.115Z,5.50
2023-04-24T14:59:05.199Z,6.10
2023-04-24T15:01:33.403Z,5.77
2023-04-24T15:04:01.465Z,6.80
2023-04-24T15:06:32.034Z,6.20
2023-04-24T15:08:59.960Z,7.63
2023-04-24T15:11:28.634Z,8.07
2023-04-24T15:13:56.779Z,9.10
2023-04-24T15:16:26.660Z,9.73
2023-04-24T15:18:54.658Z,7.97
2023-04-24T15:21:22.927Z,9.30
2023-04-24T15:23:50.918Z,8.27
2023-04-24T15:26:19.616Z,7.53
2023-04-24T15:28:48.269Z,8.20
2023-04-24T15:31:16.449Z,7.60
2023-04-24T15:33:46.188Z,9.30
2023-04-24T15:36:14.629Z,6.93
2023-04-24T15:38:45.289Z,7.70
2023-04-24T15:41:13.921Z,8.00
2023-04-24T15:43:42.322Z,8.97
2023-04-24T15:46:10.461Z,7.77
2023-04-24T15:48:40.105Z,7.43
2023-04-24T15:51:10.167Z,7.57
2023-04-24T15:53:38.161Z,7.10
2023-04-24T15:56:06.776Z,8.33
2023-04-24T15:58:34.991Z,7.87
2023-04-24T16:01:03.512Z,8.93
2023-04-24T16:03:32.162Z,12.23
2023-04-24T16:06:00.370Z,8.90
2023-04-24T16:08:29.736Z,10.00
2023-04-24T16:10:57.804Z,9.90
2023-04-24T16:13:25.767Z,14.37
2023-04-24T16:15:54.241Z,12.20
2023-04-24T16:18:23.299Z,12.47
2023-04-24T16:20:52.184Z,10.83
2023-04-24T16:23:20.347Z,10.87
2023-04-24T16:25:50.050Z,10.67
2023-04-24T16:28:18.054Z,9.60
2023-04-24T16:30:47.269Z,11.63
2023-04-24T16:33:16.015Z,9.00
2023-04-24T16:35:47.239Z,9.97
2023-04-24T16:38:15.443Z,9.97
2023-04-24T16:40:43.525Z,11.07
2023-04-24T16:43:13.131Z,12.07
2023-04-24T16:45:42.104Z,11.30
2023-04-24T16:48:11.584Z,11.90
2023-04-24T16:50:39.628Z,12.83
2023-04-24T16:53:10.430Z,14.17
2023-04-24T16:55:38.592Z,13.83
2023-04-24T16:58:06.666Z,12.93
2023-04-24T17:00:38.010Z,12.43
2023-04-24T17:03:06.255Z,13.70
2023-04-24T17:05:34.623Z,11.03
2023-04-24T17:08:02.764Z,9.87
2023-04-24T17:10:31.248Z,11.83
2023-04-24T17:13:00.170Z,11.20
2023-04-24T17:15:28.293Z,11.10
2023-04-24T17:17:58.143Z,11.07
2023-04-24T17:20:28.951Z,12.73
2023-04-24T17:22:58.289Z,10.60
2023-04-24T17:25:26.598Z,11.93
2023-04-24T17:27:54.623Z,11.13
2023-04-24T17:30:22.825Z,12.83
2023-04-24T17:32:52.504Z,13.77
2023-04-24T17:35:22.807Z,14.47
2023-04-24T17:37:51.073Z,13.10
2023-04-24T17:40:19.314Z,13.70
2023-04-24T17:42:47.272Z,13.90
2023-04-24T17:45:15.256Z,15.80
2023-04-24T17:47:43.390Z,18.77
2023-04-24T17:50:12.503Z,13.77
2023-04-24T17:52:42.145Z,14.90
2023-04-24T17:55:11.006Z,13.67
2023-04-24T17:57:39.188Z,11.40
2023-04-24T18:00:08.993Z,11.77
2023-04-24T18:02:39.879Z,11.83
2023-04-24T18:05:08.629Z,13.47
2023-04-24T18:07:39.559Z,13.77
2023-04-24T18:10:10.575Z,16.37
2023-04-24T18:12:38.665Z,15.17
2023-04-24T18:17:41.222Z,16.17
2023-04-24T18:20:11.454Z,15.80
2023-04-24T18:22:39.668Z,17.50
2023-04-24T18:25:10.005Z,13.80
2023-04-24T18:27:38.050Z,4.60
2023-04-24T18:30:07.353Z,2.20
2023-04-24T18:32:35.863Z,1.07
2023-04-24T18:35:04.409Z,1.00
2023-04-24T18:37:33.678Z,1.83
2023-04-24T18:40:01.944Z,1.70
2023-04-24T18:42:31.376Z,2.07
2023-04-24T18:45:01.809Z,2.53
2023-04-24T18:47:30.139Z,3.57
2023-04-24T18:49:58.213Z,2.33
2023-04-24T18:52:26.374Z,3.00
2023-04-24T18:54:55.858Z,1.60
2023-04-24T18:57:23.909Z,1.37
2023-04-24T18:59:53.490Z,1.10
2023-04-24T19:02:21.764Z,1.60
2023-04-24T19:04:50.618Z,0.97
2023-04-24T19:07:20.884Z,1.40
2023-04-24T19:09:51.367Z,1.60
2023-04-24T19:12:22.274Z,1.03
2023-04-24T19:14:51.921Z,1.67
2023-04-24T19:17:24.711Z,2.60
2023-04-24T19:19:53.309Z,1.63
2023-04-24T19:22:21.604Z,3.37
2023-04-24T19:24:52.134Z,1.53
2023-04-24T19:27:21.070Z,2.80
2023-04-24T19:29:52.190Z,2.53
2023-04-24T19:32:22.479Z,1.83
2023-04-24T19:34:54.338Z,1.87
2023-04-24T19:37:22.477Z,2.07
2023-04-24T19:39:50.731Z,2.57
2023-04-24T19:42:25.536Z,1.90
2023-04-24T19:45:01.318Z,1.90
2023-04-24T19:47:30.894Z,2.20
2023-04-24T19:50:00.262Z,1.63
2023-04-24T19:52:28.927Z,1.60
2023-04-24T19:54:57.190Z,1.43
2023-04-24T19:57:25.645Z,2.93
2023-04-24T19:59:53.842Z,3.00
2023-04-24T20:02:21.899Z,0.90
2023-04-24T20:04:51.445Z,1.40
2023-04-24T20:07:22.222Z,2.77
2023-04-24T20:09:50.270Z,4.50
2023-04-24T20:12:18.413Z,3.10
2023-04-24T20:14:47.859Z,2.93
2023-04-24T20:17:15.915Z,1.53
2023-04-24T20:19:44.374Z,3.17
2023-04-24T20:22:14.089Z,2.20
2023-04-24T20:24:42.249Z,1.10
2023-04-24T20:27:10.444Z,1.10
2023-04-24T20:29:38.655Z,0.77
2023-04-24T20:32:07.535Z,1.53
2023-04-24T20:34:35.734Z,0.60
2023-04-24T20:37:04.079Z,0.80
2023-04-24T20:39:33.501Z,0.43
2023-04-24T20:42:01.539Z,0.80
2023-04-24T20:44:29.578Z,0.60
2023-04-24T20:46:57.614Z,0.70
2023-04-24T20:49:25.828Z,0.60
2023-04-24T20:51:55.418Z,0.70
2023-04-24T20:54:23.357Z,0.90
2023-04-24T20:56:52.808Z,0.90
2023-04-24T20:59:20.744Z,0.70
2023-04-24T21:01:50.662Z,0.90
2023-04-24T21:04:18.866Z,1.00
2023-04-24T21:06:47.828Z,0.67
2023-04-24T21:09:16.350Z,0.57
2023-04-24T21:11:44.411Z,1.30
2023-04-24T21:14:13.860Z,0.70
2023-04-24T21:16:41.950Z,0.87
2023-04-24T21:19:10.002Z,0.80
2023-04-24T21:21:38.087Z,1.00
2023-04-24T21:24:06.596Z,0.53
2023-04-24T21:26:34.976Z,0.80
2023-04-24T21:29:03.185Z,4.00
2023-04-24T21:31:32.655Z,1.30
2023-04-24T21:34:00.974Z,0.50
2023-04-24T21:36:30.110Z,0.60
2023-04-24T21:39:00.238Z,0.97
2023-04-24T21:41:28.343Z,0.60
2023-04-24T21:43:56.943Z,0.40
2023-04-24T21:46:25.230Z,0.93
2023-04-24T21:48:54.643Z,0.53
2023-04-24T21:51:22.762Z,1.00
2023-04-24T21:53:50.932Z,0.80
2023-04-24T21:56:19.191Z,1.17
2023-04-24T21:58:48.482Z,0.80
2023-04-24T22:01:16.635Z,0.57
2023-04-24T22:03:44.756Z,0.97
2023-04-24T22:06:31.542Z,0.57
2023-04-24T22:08:59.553Z,1.33
2023-04-24T22:11:27.951Z,1.03
2023-04-24T22:13:56.179Z,0.70
2023-04-24T22:16:25.251Z,0.73
2023-04-24T22:18:55.375Z,1.73
2023-04-24T22:21:26.121Z,1.00
2023-04-24T22:23:54.286Z,0.70
2023-04-24T22:26:22.422Z,1.13
2023-04-24T22:28:50.527Z,0.70
2023-04-24T22:31:18.820Z,1.20
2023-04-24T22:33:47.866Z,0.60
2023-04-24T22:36:16.398Z,0.60
2023-04-24T22:38:45.861Z,0.70
2023-04-24T22:41:14.153Z,1.97
2023-04-24T22:43:42.164Z,1.07
2023-04-24T22:46:10.649Z,0.53
2023-04-24T22:48:38.962Z,0.93
2023-04-24T22:51:07.248Z,1.57
2023-04-24T22:53:36.297Z,0.97
2023-04-24T22:56:07.712Z,0.80
2023-04-24T22:58:35.787Z,0.67
2023-04-24T23:01:04.262Z,0.60
2023-04-24T23:03:33.480Z,0.77
2023-04-24T23:06:01.646Z,0.77
2023-04-24T23:08:30.672Z,0.53
2023-04-24T23:10:58.734Z,0.53
2023-04-24T23:13:28.282Z,0.47
2023-04-24T23:15:56.280Z,1.03
2023-04-24T23:18:24.377Z,0.93
2023-04-24T23:20:53.025Z,0.80
2023-04-24T23:23:21.001Z,0.80
2023-04-24T23:25:49.029Z,1.00
2023-04-24T23:28:17.037Z,1.00
2023-04-24T23:30:46.462Z,0.60
2023-04-24T23:33:15.051Z,1.27
2023-04-24T23:35:43.166Z,1.87
2023-04-24T23:38:11.210Z,3.10
2023-04-24T23:40:39.120Z,1.33
2023-04-24T23:43:08.439Z,2.83
2023-04-24T23:45:37.183Z,0.53
2023-04-24T23:48:06.880Z,0.90
2023-04-24T23:50:34.891Z,0.70
2023-04-24T23:53:03.073Z,0.70
2023-04-24T23:55:31.124Z,0.83
2023-04-24T23:57:59.146Z,0.90
